Time;durP1;ratioP1;P1;durP2;ratioP2;P2;SDS_P1;SDS_P2;PMS_P1;PMS_P2;Temp;Humidity;BMP_temperature;BMP_pressure;BME280_temperature;BME280_humidity;BME280_pressure;Samples;Min_cycle;Max_cycle;Signal;HPM_P1;HPM_P2
2022/12/18 00:00:20;;;;;;;13.07;8.45;;;-0.40;99.90;;;;;;5130384;28;20045;-59
2022/12/18 00:02:57;;;;;;;18.77;9.48;;;-0.40;99.90;;;;;;5132228;28;20065;-57
2022/12/18 00:05:29;;;;;;;13.68;6.40;;;-0.40;99.90;;;;;;5104254;28;20050;-59
2022/12/18 00:08:00;;;;;;;17.23;8.00;;;-0.50;99.90;;;;;;5112480;28;20057;-57
2022/12/18 00:10:32;;;;;;;15.98;8.93;;;-0.50;99.90;;;;;;5132657;28;20035;-63
2022/12/18 00:13:09;;;;;;;14.98;8.50;;;-0.50;99.90;;;;;;5132100;28;20037;-60
2022/12/18 00:15:45;;;;;;;13.77;7.22;;;-0.60;99.90;;;;;;5113857;28;20042;-57
2022/12/18 00:18:16;;;;;;;16.35;8.88;;;-0.70;99.90;;;;;;5098316;28;20042;-59
2022/12/18 00:20:48;;;;;;;15.27;8.85;;;-0.80;99.90;;;;;;5080067;28;20046;-58
2022/12/18 00:23:20;;;;;;;15.13;9.05;;;-0.80;99.90;;;;;;5113265;28;20049;-59
2022/12/18 00:25:57;;;;;;;14.25;8.15;;;-0.90;99.90;;;;;;5113993;28;20035;-60
2022/12/18 00:28:34;;;;;;;17.48;9.55;;;-0.90;99.90;;;;;;5113707;28;20055;-61
2022/12/18 00:31:21;;;;;;;22.57;11.03;;;-1.00;99.90;;;;;;5129313;28;20048;-59
2022/12/18 00:33:59;;;;;;;17.90;9.77;;;-1.10;99.90;;;;;;5126253;28;20031;-59
2022/12/18 00:36:38;;;;;;;24.03;10.97;;;-1.20;99.90;;;;;;5112820;28;20085;-59
2022/12/18 00:39:16;;;;;;;22.07;10.17;;;-1.40;99.90;;;;;;5112059;28;20042;-59
2022/12/18 00:44:40;;;;;;;18.50;10.10;;;-1.60;99.90;;;;;;5098701;28;20076;-57
2022/12/18 00:47:14;;;;;;;23.92;11.40;;;-1.70;99.90;;;;;;5124774;28;20460;-59
2022/12/18 00:49:45;;;;;;;17.75;8.73;;;-1.80;99.90;;;;;;5109532;28;20051;-59
2022/12/18 00:52:22;;;;;;;14.87;8.67;;;-1.90;99.90;;;;;;5111645;28;20052;-60
2022/12/18 00:54:56;;;;;;;17.17;9.40;;;-2.00;99.90;;;;;;5129507;28;20056;-59
2022/12/18 00:57:27;;;;;;;23.92;10.40;;;-2.10;99.90;;;;;;5128351;28;20053;-59
2022/12/18 00:59:59;;;;;;;17.83;9.32;;;-2.20;99.90;;;;;;5110533;28;20026;-59
2022/12/18 01:02:37;;;;;;;22.20;10.90;;;-2.20;99.90;;;;;;5158670;23;20735;-75
2022/12/18 01:05:13;;;;;;;19.63;10.17;;;-2.30;99.90;;;;;;5125841;28;20051;-75
2022/12/18 01:07:53;;;;;;;22.63;11.00;;;-2.40;99.90;;;;;;5133773;28;20030;-75
2022/12/18 01:10:26;;;;;;;20.80;10.27;;;-2.40;99.90;;;;;;5147052;28;20351;-75
2022/12/18 01:12:58;;;;;;;23.55;11.15;;;-2.40;99.90;;;;;;5146601;28;20127;-75
2022/12/18 01:15:31;;;;;;;17.80;10.63;;;-2.40;99.90;;;;;;5159236;28;20043;-75
2022/12/18 01:18:05;;;;;;;21.53;12.13;;;-2.50;99.90;;;;;;5124289;28;20032;-74
2022/12/18 01:20:38;;;;;;;26.42;12.68;;;-2.50;99.90;;;;;;5131929;28;20377;-76
2022/12/18 01:23:09;;;;;;;25.83;11.03;;;-2.60;99.90;;;;;;5145509;28;20042;-76
2022/12/18 01:25:41;;;;;;;21.83;10.20;;;-2.60;99.90;;;;;;5118945;28;20038;-74
2022/12/18 01:28:15;;;;;;;24.03;11.23;;;-2.60;99.90;;;;;;5130872;28;20035;-74
2022/12/18 01:30:49;;;;;;;18.37;9.47;;;-2.60;99.90;;;;;;5142195;28;20026;-74
2022/12/18 01:33:26;;;;;;;18.75;9.52;;;-2.60;99.90;;;;;;5123082;28;20460;-74
2022/12/18 01:36:00;;;;;;;24.13;10.93;;;-2.60;99.90;;;;;;5131725;28;20035;-76
2022/12/18 01:38:32;;;;;;;21.77;10.20;;;-2.70;99.90;;;;;;5134467;28;20497;-74
2022/12/18 01:41:05;;;;;;;20.70;9.20;;;-2.60;99.90;;;;;;5132536;28;20051;-74
2022/12/18 01:43:53;;;;;;;22.05;10.05;;;-2.70;99.90;;;;;;5140329;28;20039;-77
2022/12/18 01:46:34;;;;;;;26.27;10.70;;;-2.60;99.90;;;;;;5125878;28;20466;-75
2022/12/18 01:49:08;;;;;;;14.17;9.10;;;-2.60;99.90;;;;;;5119702;28;20038;-74
2022/12/18 01:51:40;;;;;;;15.77;8.10;;;-2.60;99.90;;;;;;5150744;28;20049;-75
2022/12/18 01:54:19;;;;;;;16.70;8.10;;;-2.70;99.90;;;;;;5137433;28;20034;-75
2022/12/18 01:56:53;;;;;;;16.47;9.00;;;-2.80;99.90;;;;;;5150106;28;20046;-75
2022/12/18 01:59:25;;;;;;;22.57;8.53;;;-2.80;99.90;;;;;;5118849;28;20053;-75
2022/12/18 02:02:04;;;;;;;17.30;8.93;;;-3.00;99.90;;;;;;5148401;28;20049;-75
2022/12/18 02:04:45;;;;;;;16.67;7.63;;;-3.00;99.90;;;;;;5122508;28;20050;-74
2022/12/18 02:07:56;;;;;;;14.60;8.70;;;-3.00;99.90;;;;;;5152197;28;20482;-75
2022/12/18 02:10:38;;;;;;;13.77;9.03;;;-3.10;99.90;;;;;;5153158;28;20034;-76
2022/12/18 02:13:46;;;;;;;14.53;7.83;;;-3.10;99.90;;;;;;5148289;28;20037;-76
2022/12/18 02:16:30;;;;;;;11.60;7.70;;;-3.20;99.90;;;;;;5122400;28;20026;-76
2022/12/18 02:19:46;;;;;;;12.25;8.20;;;-3.20;99.90;;;;;;5136874;28;20042;-76
2022/12/18 02:23:08;;;;;;;11.37;7.07;;;-3.30;99.90;;;;;;5106109;28;20706;-76
2022/12/18 02:26:13;;;;;;;8.63;5.87;;;-3.30;99.90;;;;;;5071047;29;20602;-76
2022/12/18 02:29:23;;;;;;;11.70;7.90;;;-3.40;99.90;;;;;;5088422;29;20031;-76
2022/12/18 02:32:09;;;;;;;11.50;7.93;;;-3.50;99.90;;;;;;5093755;29;20050;-76
2022/12/18 02:34:45;;;;;;;13.93;7.20;;;-3.60;99.90;;;;;;5093414;29;20051;-74
2022/12/18 02:37:25;;;;;;;12.50;8.03;;;-3.70;99.90;;;;;;5087269;29;20042;-74
2022/12/18 02:40:03;;;;;;;11.27;6.00;;;-3.70;99.90;;;;;;5105584;29;20054;-75
2022/12/18 02:42:38;;;;;;;14.47;8.77;;;-3.70;99.90;;;;;;5108170;29;20038;-75
2022/12/18 02:45:10;;;;;;;17.27;8.97;;;-3.80;99.90;;;;;;5089382;29;20065;-75
2022/12/18 02:47:48;;;;;;;14.80;8.37;;;-3.80;99.90;;;;;;5109100;29;20053;-74
2022/12/18 02:51:04;;;;;;;16.67;8.17;;;-3.90;99.90;;;;;;5109713;29;20051;-75
2022/12/18 02:53:43;;;;;;;11.37;7.17;;;-3.90;99.90;;;;;;5092741;29;20051;-73
2022/12/18 02:56:46;;;;;;;13.30;6.90;;;-4.00;99.90;;;;;;5108006;29;20663;-74
2022/12/18 02:59:40;;;;;;;11.83;6.80;;;-4.00;99.90;;;;;;5090926;29;20182;-74
2022/12/18 03:02:20;;;;;;;10.07;6.40;;;-4.00;99.90;;;;;;5122572;28;20038;-74
2022/12/18 03:05:07;;;;;;;11.53;6.57;;;-4.10;99.90;;;;;;5119733;28;20483;-74
2022/12/18 03:07:58;;;;;;;12.07;7.17;;;-4.10;99.90;;;;;;5130106;28;20062;-74
2022/12/18 03:10:53;;;;;;;15.23;8.03;;;-4.10;99.90;;;;;;5140762;28;20042;-74
2022/12/18 03:13:57;;;;;;;10.97;5.97;;;-4.20;99.90;;;;;;5143469;28;20034;-73
2022/12/18 03:16:33;;;;;;;13.93;7.00;;;-4.20;99.90;;;;;;5148588;28;20030;-74
2022/12/18 03:19:19;;;;;;;12.73;6.43;;;-4.10;99.90;;;;;;5114238;28;20382;-74
2022/12/18 03:22:03;;;;;;;14.77;7.97;;;-4.10;99.90;;;;;;5134180;28;20439;-74
2022/12/18 03:24:40;;;;;;;;;;;-4.10;99.90;;;;;;5136420;28;20572;-74
2022/12/18 03:27:21;;;;;;;9.47;5.87;;;-4.10;99.90;;;;;;5134364;28;20057;-73
2022/12/18 03:30:10;;;;;;;9.13;5.73;;;-4.10;99.90;;;;;;5131297;28;20052;-73
2022/12/18 03:33:19;;;;;;;11.37;6.40;;;-4.20;99.90;;;;;;5132927;28;20255;-74
2022/12/18 03:35:58;;;;;;;10.67;6.60;;;-4.30;99.90;;;;;;5135607;28;20468;-75
2022/12/18 03:38:29;;;;;;;15.57;7.60;;;-4.50;99.90;;;;;;5151530;28;20018;-73
2022/12/18 03:41:21;;;;;;;10.13;5.77;;;-4.40;99.90;;;;;;5133576;28;20054;-76
2022/12/18 03:44:12;;;;;;;11.83;6.00;;;-4.30;99.90;;;;;;5153949;28;20046;-73
2022/12/18 03:46:49;;;;;;;8.47;6.20;;;-4.30;99.90;;;;;;5133523;28;20063;-73
2022/12/18 03:49:46;;;;;;;9.87;6.90;;;-4.30;99.90;;;;;;5136275;28;20037;-73
2022/12/18 03:52:42;;;;;;;8.73;5.33;;;-4.30;99.90;;;;;;5153017;28;20046;-75
2022/12/18 03:55:18;;;;;;;8.70;5.73;;;-4.40;99.90;;;;;;5124496;28;20412;-75
2022/12/18 03:57:56;;;;;;;8.50;6.70;;;-4.40;99.90;;;;;;5142177;28;20049;-75
2022/12/18 04:00:35;;;;;;;11.20;6.73;;;-4.50;99.90;;;;;;5147552;28;20049;-73
2022/12/18 04:03:08;;;;;;;8.27;4.90;;;-4.50;99.90;;;;;;5145801;28;20026;-74
2022/12/18 04:05:43;;;;;;;10.83;7.20;;;-4.60;99.90;;;;;;5123047;28;20489;-74
2022/12/18 04:08:15;;;;;;;9.57;5.53;;;-4.60;99.90;;;;;;5135063;28;20278;-73
2022/12/18 04:10:49;;;;;;;11.43;6.73;;;-4.60;99.90;;;;;;5151768;28;20387;-74
2022/12/18 04:13:28;;;;;;;12.60;6.20;;;-4.70;99.90;;;;;;5153790;28;20046;-73
2022/12/18 04:16:03;;;;;;;11.00;4.53;;;-4.80;99.90;;;;;;5139168;28;20042;-73
2022/12/18 04:18:35;;;;;;;13.40;6.50;;;-4.80;99.90;;;;;;5140506;28;20026;-74
2022/12/18 04:21:09;;;;;;;8.57;6.40;;;-4.80;99.90;;;;;;5141708;28;20034;-74
2022/12/18 04:23:43;;;;;;;8.65;5.78;;;-4.90;99.90;;;;;;5127295;28;20495;-73
2022/12/18 04:26:15;;;;;;;12.00;6.67;;;-4.90;99.90;;;;;;5155198;28;20030;-73
2022/12/18 04:28:47;;;;;;;10.43;6.90;;;-5.00;99.90;;;;;;5135896;28;20030;-74
2022/12/18 04:31:21;;;;;;;12.53;8.10;;;-5.00;99.90;;;;;;5138364;28;20034;-73
2022/12/18 04:33:52;;;;;;;;;;;-5.00;99.90;;;;;;5140452;28;20038;-74
2022/12/18 04:36:27;;;;;;;8.50;5.30;;;-5.00;99.90;;;;;;5140078;28;19917;-74
2022/12/18 04:38:59;;;;;;;12.20;7.63;;;-5.00;99.90;;;;;;5154806;28;20026;-74
2022/12/18 04:41:36;;;;;;;9.40;5.00;;;-5.00;99.90;;;;;;5122687;28;20050;-74
2022/12/18 04:44:07;;;;;;;10.27;5.77;;;-5.10;99.90;;;;;;5138377;28;20073;-74
2022/12/18 04:46:44;;;;;;;7.33;5.13;;;-5.10;99.90;;;;;;5156456;28;20026;-74
2022/12/18 04:49:18;;;;;;;10.23;6.17;;;-5.10;99.90;;;;;;5121818;28;20038;-74
2022/12/18 04:51:52;;;;;;;;;;;-5.10;99.90;;;;;;5139636;28;20039;-74
2022/12/18 04:54:26;;;;;;;11.25;7.13;;;-5.20;99.90;;;;;;5136639;28;20531;-74
2022/12/18 04:57:00;;;;;;;;;;;-5.20;99.90;;;;;;5121860;28;20147;-74
2022/12/18 04:59:32;;;;;;;9.60;4.57;;;-5.20;99.90;;;;;;5136146;28;19958;-74
2022/12/18 05:02:04;;;;;;;7.97;4.97;;;-5.20;99.90;;;;;;5143919;28;20042;-74
2022/12/18 05:04:38;;;;;;;10.75;7.47;;;-5.20;99.90;;;;;;5112319;28;20520;-74
2022/12/18 05:07:17;;;;;;;10.20;5.77;;;-5.20;99.90;;;;;;5123173;28;20035;-74
2022/12/18 05:09:51;;;;;;;7.30;5.97;;;-5.20;99.90;;;;;;5150696;28;20511;-73
2022/12/18 05:12:28;;;;;;;12.80;6.28;;;-5.20;99.90;;;;;;5137915;28;20584;-73
2022/12/18 05:15:07;;;;;;;5.77;4.57;;;-5.20;99.90;;;;;;5155230;28;20437;-73
2022/12/18 05:17:39;;;;;;;12.17;5.80;;;-5.20;99.90;;;;;;5140406;28;20460;-73
2022/12/18 05:20:10;;;;;;;16.60;5.87;;;-5.20;99.90;;;;;;5138899;28;20485;-73
2022/12/18 05:22:46;;;;;;;10.33;5.67;;;-5.30;99.90;;;;;;5128745;28;20565;-73
2022/12/18 05:25:22;;;;;;;6.57;5.87;;;-5.30;99.90;;;;;;5135595;28;20045;-73
2022/12/18 05:27:58;;;;;;;10.73;5.67;;;-5.30;99.90;;;;;;5122037;28;20035;-72
2022/12/18 05:30:30;;;;;;;14.20;6.50;;;-5.40;99.90;;;;;;5157555;28;20046;-73
2022/12/18 05:33:12;;;;;;;9.73;5.13;;;-5.40;99.90;;;;;;5142389;28;20034;-73
2022/12/18 05:35:44;;;;;;;14.13;7.53;;;-5.50;99.90;;;;;;5156600;28;20037;-73
2022/12/18 05:38:15;;;;;;;8.90;5.43;;;-5.50;99.90;;;;;;5138886;28;20263;-73
2022/12/18 05:40:58;;;;;;;12.47;6.60;;;-5.60;99.90;;;;;;5137293;28;20053;-74
2022/12/18 05:43:32;;;;;;;12.10;6.53;;;-5.60;99.90;;;;;;5105704;28;20035;-73
2022/12/18 05:46:12;;;;;;;13.40;6.33;;;-5.60;99.90;;;;;;5139224;28;20049;-73
2022/12/18 05:48:52;;;;;;;8.13;5.33;;;-5.60;99.90;;;;;;5140473;28;20048;-73
2022/12/18 05:51:23;;;;;;;9.37;5.80;;;-5.60;99.90;;;;;;5146878;28;20030;-73
2022/12/18 05:53:55;;;;;;;6.00;5.40;;;-5.60;99.90;;;;;;5140283;28;20030;-73
2022/12/18 05:56:32;;;;;;;4.93;4.07;;;-5.60;99.90;;;;;;5136459;28;20449;-73
2022/12/18 05:59:03;;;;;;;22.47;5.93;;;-5.70;99.90;;;;;;5139403;28;20073;-73
2022/12/18 06:01:38;;;;;;;7.10;5.53;;;-5.70;99.90;;;;;;5126971;28;20077;-74
2022/12/18 06:04:12;;;;;;;12.10;7.20;;;-5.70;99.90;;;;;;5111749;28;20434;-74
2022/12/18 06:06:43;;;;;;;12.35;6.10;;;-5.80;99.90;;;;;;5137144;28;20035;-74
2022/12/18 06:09:22;;;;;;;12.03;6.37;;;-5.80;99.90;;;;;;5139510;28;20053;-76
2022/12/18 06:11:53;;;;;;;11.97;6.40;;;-5.80;99.90;;;;;;5130305;28;20046;-73
2022/12/18 06:14:25;;;;;;;12.87;5.83;;;-5.70;99.90;;;;;;5130835;28;20623;-74
2022/12/18 06:16:56;;;;;;;8.47;4.73;;;-5.70;99.90;;;;;;5123551;28;20389;-73
2022/12/18 06:19:28;;;;;;;16.57;7.10;;;-5.60;99.90;;;;;;5131080;28;20042;-76
2022/12/18 06:22:02;;;;;;;11.80;6.47;;;-5.60;99.90;;;;;;5138640;28;20057;-74
2022/12/18 06:24:36;;;;;;;9.97;6.23;;;-5.60;99.90;;;;;;5138106;28;20025;-73
2022/12/18 06:27:08;;;;;;;;;;;-5.60;99.90;;;;;;5147180;28;20026;-73
2022/12/18 06:29:42;;;;;;;13.60;6.83;;;-5.60;99.90;;;;;;5139988;28;20405;-73
2022/12/18 06:32:13;;;;;;;10.50;6.30;;;-5.60;99.90;;;;;;5128358;28;20042;-73
2022/12/18 06:34:45;;;;;;;15.10;6.30;;;-5.60;99.90;;;;;;5130183;28;20405;-74
2022/12/18 06:37:19;;;;;;;10.17;6.20;;;-5.60;99.90;;;;;;5130674;28;20344;-72
2022/12/18 06:39:57;;;;;;;11.27;7.10;;;-5.70;99.90;;;;;;5149671;28;20022;-74
2022/12/18 06:42:31;;;;;;;12.17;4.80;;;-5.70;99.90;;;;;;5153570;28;20050;-73
2022/12/18 06:45:03;;;;;;;8.77;5.47;;;-5.70;99.90;;;;;;5118688;28;20041;-74
2022/12/18 06:47:42;;;;;;;5.93;4.27;;;-5.80;99.90;;;;;;5150701;28;20579;-74
2022/12/18 06:50:13;;;;;;;9.67;5.57;;;-5.80;99.90;;;;;;5132167;28;20044;-74
2022/12/18 06:52:47;;;;;;;13.30;6.90;;;-5.80;99.90;;;;;;5115509;28;20049;-75
2022/12/18 06:55:21;;;;;;;;;;;-5.80;99.90;;;;;;5151262;28;20028;-73
2022/12/18 06:57:55;;;;;;;13.70;6.38;;;-5.80;99.90;;;;;;5150339;28;19920;-73
2022/12/18 07:00:31;;;;;;;;;;;-5.70;99.90;;;;;;5132879;28;20045;-74
2022/12/18 07:03:08;;;;;;;10.60;6.20;;;-5.60;99.90;;;;;;5119210;28;19932;-73
2022/12/18 07:05:43;;;;;;;9.90;6.37;;;-5.60;99.90;;;;;;5131519;28;20057;-73
2022/12/18 07:08:17;;;;;;;9.93;6.20;;;-5.60;99.90;;;;;;5131254;28;20227;-74
2022/12/18 07:10:51;;;;;;;12.57;6.43;;;-5.50;99.90;;;;;;5147170;28;20049;-73
2022/12/18 07:13:31;;;;;;;19.60;8.77;;;-5.50;99.90;;;;;;5146181;28;20327;-74
2022/12/18 07:16:07;;;;;;;16.97;8.90;;;-5.40;99.90;;;;;;5150486;28;20042;-76
2022/12/18 07:18:41;;;;;;;10.50;6.13;;;-5.40;99.90;;;;;;5152293;28;20026;-75
2022/12/18 07:21:19;;;;;;;9.57;5.83;;;-5.30;99.90;;;;;;5157656;28;20046;-75
2022/12/18 07:23:50;;;;;;;11.73;6.83;;;-5.30;99.90;;;;;;5158560;28;20034;-75
2022/12/18 07:26:27;;;;;;;13.63;6.80;;;-5.20;99.90;;;;;;5126282;28;20035;-74
2022/12/18 07:28:58;;;;;;;16.47;8.50;;;-5.20;99.90;;;;;;5143648;28;20022;-75
2022/12/18 08:02:45;;;;;;;24.33;12.67;;;-3.40;99.90;;;;;;6274365;22;4126320;-60
2022/12/18 08:05:20;;;;;;;29.15;14.30;;;-3.40;99.90;;;;;;6367499;22;20249;-60
2022/12/18 08:07:56;;;;;;;28.83;14.33;;;-3.40;99.90;;;;;;6220704;23;20002;-59
2022/12/18 08:10:31;;;;;;;24.63;13.50;;;-3.30;99.90;;;;;;6221081;23;20006;-59
2022/12/18 08:13:05;;;;;;;29.83;14.57;;;-3.30;99.90;;;;;;6220876;23;20018;-59
2022/12/18 08:15:41;;;;;;;27.90;15.15;;;-3.20;99.90;;;;;;6223025;23;20321;-59
2022/12/18 08:18:14;;;;;;;40.53;18.10;;;-3.10;99.90;;;;;;6245028;23;20183;-58
2022/12/18 08:20:48;;;;;;;27.67;14.33;;;-2.90;99.90;;;;;;6246452;23;20017;-59
2022/12/18 08:23:22;;;;;;;24.90;12.55;;;-2.90;99.90;;;;;;6220972;23;19996;-60
2022/12/18 08:25:54;;;;;;;28.47;15.57;;;-2.80;99.90;;;;;;6223296;23;20206;-57
2022/12/18 08:28:28;;;;;;;33.63;13.60;;;-2.60;99.90;;;;;;6223252;23;20050;-58
2022/12/18 08:30:59;;;;;;;27.63;13.98;;;-2.20;99.90;;;;;;6220154;23;20283;-60
2022/12/18 08:33:31;;;;;;;27.47;13.53;;;-2.00;99.90;;;;;;6221137;23;20015;-58
2022/12/18 08:36:03;;;;;;;24.03;13.30;;;-1.70;99.90;;;;;;6231517;23;20311;-58
2022/12/18 08:38:39;;;;;;;23.43;12.83;;;-1.50;99.90;;;;;;6223060;23;20001;-58
2022/12/18 08:41:18;;;;;;;19.13;11.70;;;-1.30;99.90;;;;;;6227751;23;20308;-59
2022/12/18 08:46:41;;;;;;;22.58;12.57;;;-0.90;99.90;;;;;;6216060;23;19999;-59
2022/12/18 08:49:12;;;;;;;21.73;10.70;;;-0.80;99.90;;;;;;6217966;23;20055;-59
2022/12/18 08:51:44;;;;;;;22.45;11.57;;;-0.70;99.90;;;;;;6214034;23;20025;-59
2022/12/18 08:54:17;;;;;;;20.17;10.80;;;-0.60;99.90;;;;;;6215272;23;20010;-60
2022/12/18 08:56:52;;;;;;;16.55;9.73;;;-0.40;99.90;;;;;;6212940;23;20111;-58
2022/12/18 08:59:31;;;;;;;16.67;10.03;;;-0.30;99.90;;;;;;6214084;23;20211;-60
2022/12/18 09:02:02;;;;;;;18.23;10.30;;;-0.20;99.90;;;;;;6223961;23;20062;-60
2022/12/18 09:04:36;;;;;;;23.50;9.75;;;-0.20;99.90;;;;;;6187112;23;20008;-60
2022/12/18 09:07:07;;;;;;;18.05;10.02;;;-0.20;99.90;;;;;;6376308;23;20239;-58
2022/12/18 09:09:43;;;;;;;22.80;10.38;;;-0.10;99.90;;;;;;6351432;23;20067;-61
2022/12/18 09:12:15;;;;;;;17.42;10.13;;;0.00;99.90;;;;;;6401827;23;20048;-61
2022/12/18 09:14:46;;;;;;;20.55;11.13;;;0.00;99.90;;;;;;6353226;23;20204;-59
2022/12/18 09:17:18;;;;;;;27.05;11.85;;;0.00;99.90;;;;;;6380060;23;20146;-61
2022/12/18 09:19:49;;;;;;;21.83;11.73;;;0.20;99.90;;;;;;6407876;23;20051;-60
2022/12/18 09:22:23;;;;;;;20.77;11.05;;;0.40;99.90;;;;;;6327264;23;20607;-61
2022/12/18 09:24:56;;;;;;;20.80;10.25;;;0.50;99.90;;;;;;6403323;23;20060;-61
2022/12/18 09:27:27;;;;;;;18.67;10.88;;;0.40;99.90;;;;;;6402801;23;20000;-61
2022/12/18 09:30:01;;;;;;;20.52;11.07;;;0.50;99.90;;;;;;6405481;23;20047;-60
2022/12/18 09:32:36;;;;;;;23.08;12.02;;;0.50;99.90;;;;;;6405423;23;20052;-60
2022/12/18 09:35:07;;;;;;;19.70;10.48;;;0.30;99.90;;;;;;6379369;23;20015;-61
2022/12/18 09:37:42;;;;;;;18.75;9.18;;;0.30;99.90;;;;;;6405712;23;20011;-60
2022/12/18 09:40:23;;;;;;;18.83;8.88;;;0.00;99.90;;;;;;6381330;23;20055;-61
2022/12/18 09:43:02;;;;;;;20.23;8.98;;;-0.10;99.90;;;;;;6378358;23;20055;-61
2022/12/18 09:45:47;;;;;;;19.23;9.48;;;-0.20;99.90;;;;;;6388674;23;20484;-62
2022/12/18 09:48:38;;;;;;;19.35;9.30;;;-0.30;99.90;;;;;;6378116;23;20580;-59
2022/12/18 09:51:17;;;;;;;21.90;10.90;;;-0.50;99.90;;;;;;6377282;23;20079;-60
2022/12/18 09:53:56;;;;;;;19.35;9.32;;;-0.40;99.90;;;;;;6407303;23;20463;-60
2022/12/18 09:56:31;;;;;;;18.45;10.55;;;-0.40;99.90;;;;;;6353267;23;20003;-60
2022/12/18 09:59:08;;;;;;;19.80;10.55;;;-0.50;99.90;;;;;;6381872;23;20060;-60
2022/12/18 10:01:39;;;;;;;22.05;11.43;;;-0.70;99.90;;;;;;6376321;23;20076;-60
2022/12/18 10:04:11;;;;;;;19.23;9.27;;;-0.70;99.90;;;;;;6345644;23;20289;-61
2022/12/18 10:06:51;;;;;;;19.67;8.30;;;-0.60;99.90;;;;;;6348849;23;19995;-60
2022/12/18 10:09:43;;;;;;;21.52;10.48;;;-0.70;99.90;;;;;;6375990;23;20040;-61
2022/12/18 10:12:37;;;;;;;25.98;10.38;;;-0.50;99.90;;;;;;6375866;23;20163;-60
2022/12/18 10:15:24;;;;;;;20.52;9.57;;;-0.60;99.90;;;;;;6373419;23;20015;-60
2022/12/18 10:18:23;;;;;;;20.17;9.48;;;-0.50;99.90;;;;;;6372056;23;20007;-59
2022/12/18 10:21:03;;;;;;;18.95;10.27;;;-0.40;99.90;;;;;;6374721;23;20044;-60
2022/12/18 10:24:15;;;;;;;21.08;9.98;;;-0.40;99.90;;;;;;6397430;23;20060;-61
2022/12/18 10:26:47;;;;;;;17.27;9.70;;;-0.70;99.90;;;;;;6364530;23;20105;-60
2022/12/18 10:29:19;;;;;;;20.52;9.45;;;-0.70;99.90;;;;;;6384507;23;20023;-59
2022/12/18 10:31:50;;;;;;;15.85;9.25;;;-0.80;99.90;;;;;;6373631;23;20007;-59
2022/12/18 10:34:26;;;;;;;18.35;9.82;;;-0.80;99.90;;;;;;6374193;23;19997;-58
2022/12/18 10:37:06;;;;;;;19.25;9.93;;;-0.80;99.90;;;;;;6374466;23;19993;-59
2022/12/18 10:39:39;;;;;;;23.95;9.57;;;-1.10;99.90;;;;;;6372912;23;20060;-60
2022/12/18 10:42:18;;;;;;;23.00;9.93;;;-1.10;99.90;;;;;;6374119;23;20007;-59
2022/12/18 10:45:08;;;;;;;21.88;10.23;;;-1.00;99.90;;;;;;6376022;23;20048;-60
2022/12/18 10:47:46;;;;;;;20.30;9.70;;;-0.90;99.90;;;;;;6374502;23;20048;-58
2022/12/18 10:50:32;;;;;;;18.85;10.25;;;-0.90;99.90;;;;;;6373711;23;20001;-61
2022/12/18 10:53:05;;;;;;;20.00;10.57;;;-0.80;99.90;;;;;;6399329;23;20031;-60
2022/12/18 10:55:40;;;;;;;29.10;12.90;;;-0.70;99.90;;;;;;6370864;23;20009;-59
2022/12/18 10:58:32;;;;;;;23.33;11.53;;;-0.70;99.90;;;;;;6372531;23;20060;-59
2022/12/18 11:01:03;;;;;;;24.23;11.03;;;-0.70;99.90;;;;;;6374768;23;20518;-61
2022/12/18 11:03:43;;;;;;;33.03;13.88;;;-0.80;99.90;;;;;;6400462;23;20060;-60
2022/12/18 11:06:24;;;;;;;21.02;11.95;;;-0.80;99.90;;;;;;6387758;23;20005;-59
2022/12/18 11:09:04;;;;;;;18.02;8.90;;;-0.90;99.90;;;;;;6405512;23;20048;-60
2022/12/18 11:11:37;;;;;;;22.38;9.93;;;-0.80;99.90;;;;;;6406105;23;20075;-61
2022/12/18 11:14:28;;;;;;;24.37;11.37;;;-0.70;99.90;;;;;;6416015;23;20564;-60
2022/12/18 11:17:00;;;;;;;27.45;13.05;;;-0.60;99.90;;;;;;6404386;23;20055;-58
2022/12/18 11:19:39;;;;;;;25.42;11.70;;;-0.50;99.90;;;;;;6379212;23;20059;-59
2022/12/18 11:22:27;;;;;;;20.88;11.65;;;-0.50;99.90;;;;;;6378873;23;20003;-60
2022/12/18 11:25:15;;;;;;;22.20;10.77;;;-0.60;99.90;;;;;;6405822;23;20498;-59
2022/12/18 11:27:58;;;;;;;22.35;10.55;;;-0.80;99.90;;;;;;6414887;23;20003;-61
2022/12/18 11:30:30;;;;;;;22.30;9.45;;;-0.90;99.90;;;;;;6378982;23;19996;-58
2022/12/18 11:33:23;;;;;;;21.92;10.05;;;-0.90;99.90;;;;;;6405850;23;20346;-61
2022/12/18 11:36:03;;;;;;;22.13;10.65;;;-0.80;99.90;;;;;;6354165;23;20060;-59
2022/12/18 11:38:37;;;;;;;23.15;10.23;;;-0.50;99.90;;;;;;6403814;23;20005;-60
2022/12/18 11:41:23;;;;;;;21.25;10.05;;;-0.40;99.90;;;;;;6405173;23;20214;-60
2022/12/18 11:43:58;;;;;;;20.65;10.25;;;-0.40;99.90;;;;;;6379664;23;20064;-60
2022/12/18 11:46:39;;;;;;;22.90;11.43;;;-0.40;99.90;;;;;;6377512;23;20068;-60
2022/12/18 11:49:26;;;;;;;25.10;12.25;;;-0.40;99.90;;;;;;6406724;23;20068;-60
2022/12/18 11:52:04;;;;;;;18.38;9.52;;;-0.30;99.90;;;;;;6378647;23;20054;-59
2022/12/18 11:54:37;;;;;;;22.88;10.20;;;-0.30;99.90;;;;;;6405110;23;19997;-60
2022/12/18 11:57:29;;;;;;;20.67;10.90;;;-0.40;99.90;;;;;;6378415;23;20307;-60
2022/12/18 12:00:23;;;;;;;21.98;12.70;;;-0.50;99.90;;;;;;6378838;23;20083;-59
2022/12/18 12:03:33;;;;;;;26.13;11.10;;;-0.50;99.90;;;;;;6351659;23;20443;-59
2022/12/18 12:06:15;;;;;;;28.95;12.00;;;-0.60;99.90;;;;;;6364392;23;20387;-60
2022/12/18 12:09:04;;;;;;;20.88;10.30;;;-0.50;99.90;;;;;;6378054;23;19996;-60
2022/12/18 12:11:44;;;;;;;27.35;11.25;;;-0.50;99.90;;;;;;6377807;23;20221;-61
2022/12/18 12:14:46;;;;;;;22.00;10.75;;;-0.50;99.90;;;;;;6404048;23;20181;-59
2022/12/18 12:17:29;;;;;;;27.08;11.55;;;-0.50;99.90;;;;;;6405299;23;20039;-60
2022/12/18 12:20:48;;;;;;;18.23;10.98;;;-0.40;99.90;;;;;;6405386;23;20051;-59
2022/12/18 12:24:02;;;;;;;22.10;12.02;;;-0.50;99.90;;;;;;6417757;23;20395;-59
2022/12/18 12:27:03;;;;;;;23.83;11.02;;;-0.50;99.90;;;;;;6407467;23;20329;-60
2022/12/18 12:29:56;;;;;;;23.13;11.65;;;-0.50;99.90;;;;;;6407936;23;20055;-59
2022/12/18 12:32:45;;;;;;;23.73;11.43;;;-0.50;99.90;;;;;;6406167;23;20043;-60
2022/12/18 12:35:24;;;;;;;22.40;11.93;;;-0.60;99.90;;;;;;6402803;23;20005;-59
2022/12/18 12:38:17;;;;;;;23.42;12.63;;;-0.60;99.90;;;;;;6404995;23;20044;-61
2022/12/18 12:43:12;;;;;;;22.17;11.27;;;-0.50;99.90;;;;;;6380191;23;20394;-59
2022/12/18 12:44:02;;;;;;;20.05;10.90;;;-0.50;99.90;;;;;;6405166;23;20007;-60
2022/12/18 12:46:41;;;;;;;25.95;12.25;;;-0.50;99.90;;;;;;6405493;23;20060;-59
2022/12/18 12:49:22;;;;;;;23.60;10.82;;;-0.50;99.90;;;;;;6331908;23;20007;-59
2022/12/18 12:52:07;;;;;;;24.90;12.40;;;-0.60;99.90;;;;;;6408056;23;20007;-59
2022/12/18 12:54:41;;;;;;;23.02;12.55;;;-0.60;99.90;;;;;;6405108;23;20011;-60
2022/12/18 12:57:41;;;;;;;24.83;11.07;;;-0.60;99.90;;;;;;6406036;23;20052;-60
2022/12/18 13:00:20;;;;;;;26.45;11.60;;;-0.50;99.90;;;;;;6381103;23;20011;-59
2022/12/18 13:03:04;;;;;;;25.75;13.25;;;-0.50;99.90;;;;;;6356577;23;20059;-60
2022/12/18 13:05:54;;;;;;;23.92;11.75;;;-0.40;99.90;;;;;;6391542;23;20374;-58
2022/12/18 13:08:31;;;;;;;23.10;12.02;;;-0.60;99.90;;;;;;6405684;23;20003;-60
2022/12/18 13:14:36;;;;;;;23.95;12.43;;;-0.70;99.90;;;;;;6404616;23;20001;-60
2022/12/18 13:17:24;;;;;;;30.13;13.35;;;-0.60;99.90;;;;;;6406030;23;20495;-59
2022/12/18 13:20:05;;;;;;;22.98;11.35;;;-0.80;99.90;;;;;;6405172;23;20076;-60
2022/12/18 13:22:46;;;;;;;28.38;12.25;;;-0.90;99.90;;;;;;6404707;23;20254;-60
2022/12/18 13:25:39;;;;;;;22.90;11.98;;;-1.00;99.90;;;;;;6350612;23;20034;-59
2022/12/18 13:28:13;;;;;;;27.35;12.13;;;-0.90;99.90;;;;;;6375487;23;19996;-59
2022/12/18 13:30:51;;;;;;;;;;;-0.90;99.90;;;;;;6406287;23;20056;-60
2022/12/18 13:33:26;;;;;;;27.17;12.10;;;-0.80;99.90;;;;;;6400353;23;20241;-60
2022/12/18 13:36:21;;;;;;;23.15;11.73;;;-0.80;99.90;;;;;;6414000;23;20497;-58
2022/12/18 13:39:33;;;;;;;25.35;11.70;;;-0.90;99.90;;;;;;6379329;23;20056;-60
2022/12/18 13:42:04;;;;;;;22.77;11.80;;;-0.90;99.90;;;;;;6414514;23;20051;-58
2022/12/18 13:44:40;;;;;;;26.63;13.13;;;-1.00;99.90;;;;;;6375764;23;20195;-60
2022/12/18 13:47:37;;;;;;;29.02;12.93;;;-0.90;99.90;;;;;;6405216;23;20064;-61
2022/12/18 13:50:28;;;;;;;24.70;12.65;;;-0.90;99.90;;;;;;6414858;23;20303;-60
2022/12/18 13:52:59;;;;;;;29.80;13.10;;;-0.90;99.90;;;;;;6406405;23;20052;-59
2022/12/18 13:55:34;;;;;;;24.10;12.18;;;-0.90;99.90;;;;;;6411583;23;20100;-58
2022/12/18 13:58:06;;;;;;;25.85;12.75;;;-0.90;99.90;;;;;;6374688;23;20064;-58
2022/12/18 14:00:42;;;;;;;23.40;13.07;;;-0.90;99.90;;;;;;6403176;23;20048;-58
2022/12/18 14:03:25;;;;;;;24.35;12.15;;;-0.90;99.90;;;;;;6405285;23;20100;-59
2022/12/18 14:06:10;;;;;;;21.25;11.75;;;-0.90;99.90;;;;;;6391105;23;20035;-58
2022/12/18 14:08:45;;;;;;;23.33;11.52;;;-1.00;99.90;;;;;;6406747;23;20052;-59
2022/12/18 14:11:22;;;;;;;26.90;12.40;;;-1.00;99.90;;;;;;6379238;23;20004;-59
2022/12/18 14:13:54;;;;;;;22.77;12.52;;;-1.00;99.90;;;;;;6415205;23;20126;-58
2022/12/18 14:16:26;;;;;;;28.77;12.88;;;-1.00;99.90;;;;;;6403502;23;20047;-59